Time;durP1;ratioP1;P1;durP2;ratioP2;P2;SDS_P1;SDS_P2;PMS_P1;PMS_P2;Temp;Humidity;BMP_temperature;BMP_pressure;BME280_temperature;BME280_humidity;BME280_pressure;Samples;Min_cycle;Max_cycle;Signal;HPM_P1;HPM_P2
2022/10/19 00:02:17;;;;;;;1.60;0.40;;;;;;;;;;6276317;22;20011;-43
2022/10/19 00:04:45;;;;;;;1.40;0.20;;;;;;;;;;6285755;22;20750;-45
2022/10/19 00:07:11;;;;;;;1.50;0.30;;;;;;;;;;6286678;22;20023;-44
2022/10/19 00:09:38;;;;;;;2.35;0.70;;;;;;;;;;6280392;22;20065;-42
2022/10/19 00:12:05;;;;;;;2.20;0.60;;;;;;;;;;6285145;22;20015;-42
2022/10/19 00:14:31;;;;;;;2.23;0.50;;;;;;;;;;6253128;22;20027;-43
2022/10/19 00:16:58;;;;;;;1.67;0.38;;;;;;;;;;6254754;22;20480;-42
2022/10/19 00:19:27;;;;;;;1.58;0.40;;;;;;;;;;6282311;22;20012;-42
2022/10/19 00:21:54;;;;;;;3.65;1.08;;;;;;;;;;6284609;22;20023;-43
2022/10/19 00:24:21;;;;;;;1.85;0.60;;;;;;;;;;6288723;22;20015;-43
2022/10/19 00:26:47;;;;;;;1.40;0.30;;;;;;;;;;6283288;22;20476;-43
2022/10/19 00:29:14;;;;;;;1.83;0.32;;;;;;;;;;6286356;22;20415;-43
2022/10/19 00:31:41;;;;;;;1.92;0.80;;;;;;;;;;6287031;22;20035;-45
2022/10/19 00:34:07;;;;;;;1.85;0.43;;;;;;;;;;6282838;22;20469;-43
2022/10/19 00:36:36;;;;;;;3.15;1.15;;;;;;;;;;6285149;22;20519;-42
2022/10/19 00:39:07;;;;;;;7.07;0.90;;;;;;;;;;6277218;22;20499;-42
2022/10/19 00:41:34;;;;;;;3.38;0.65;;;;;;;;;;6260304;22;20483;-44
2022/10/19 00:44:02;;;;;;;1.92;0.35;;;;;;;;;;6282971;22;20338;-44
2022/10/19 00:46:30;;;;;;;2.80;1.17;;;;;;;;;;6285154;22;20022;-42
2022/10/19 00:48:58;;;;;;;1.60;0.30;;;;;;;;;;6283037;22;20390;-43
2022/10/19 00:51:24;;;;;;;1.53;0.30;;;;;;;;;;6288490;22;20049;-44
2022/10/19 00:53:53;;;;;;;1.75;0.35;;;;;;;;;;6284411;22;20015;-45
2022/10/19 00:56:19;;;;;;;1.70;0.40;;;;;;;;;;6286208;22;20523;-44
2022/10/19 00:58:46;;;;;;;1.67;0.38;;;;;;;;;;6281295;22;20019;-44
2022/10/19 01:01:15;;;;;;;2.88;0.38;;;;;;;;;;6290329;22;20019;-44
2022/10/19 01:03:42;;;;;;;2.53;0.73;;;;;;;;;;6281489;22;20027;-42
2022/10/19 01:06:09;;;;;;;1.63;0.50;;;;;;;;;;6287872;22;20015;-42
2022/10/19 01:08:36;;;;;;;2.85;0.85;;;;;;;;;;6283906;22;20069;-44
2022/10/19 01:11:13;;;;;;;1.92;0.40;;;;;;;;;;6287140;22;20011;-42
2022/10/19 01:13:43;;;;;;;1.15;0.20;;;;;;;;;;6287382;22;20011;-43
2022/10/19 01:16:14;;;;;;;1.60;0.30;;;;;;;;;;6284420;22;20038;-42
2022/10/19 01:18:44;;;;;;;1.73;0.43;;;;;;;;;;6286050;22;20634;-43
2022/10/19 01:21:16;;;;;;;2.75;0.65;;;;;;;;;;6283922;22;20054;-43
2022/10/19 01:24:06;;;;;;;1.73;0.30;;;;;;;;;;6265381;22;20072;-44
2022/10/19 01:26:46;;;;;;;1.88;0.57;;;;;;;;;;6260945;22;20085;-42
2022/10/19 01:29:16;;;;;;;2.30;0.40;;;;;;;;;;6285369;22;20093;-43
2022/10/19 01:31:47;;;;;;;1.63;0.47;;;;;;;;;;6286272;22;20441;-42
2022/10/19 01:34:17;;;;;;;2.95;0.47;;;;;;;;;;6288748;22;20433;-42
2022/10/19 01:36:46;;;;;;;1.35;0.30;;;;;;;;;;6281122;22;20023;-44
2022/10/19 01:39:18;;;;;;;6.47;0.40;;;;;;;;;;6286840;22;20153;-43
2022/10/19 01:41:47;;;;;;;1.70;0.47;;;;;;;;;;6280299;22;20441;-42
2022/10/19 01:44:16;;;;;;;1.50;0.30;;;;;;;;;;6259911;22;20461;-45
2022/10/19 01:46:47;;;;;;;2.60;0.63;;;;;;;;;;6281617;22;20523;-42
2022/10/19 01:49:15;;;;;;;1.25;0.20;;;;;;;;;;6278018;22;20476;-44
2022/10/19 01:51:43;;;;;;;2.03;0.50;;;;;;;;;;6282250;22;20023;-44
2022/10/19 01:54:13;;;;;;;1.53;0.30;;;;;;;;;;6287046;22;20019;-42
2022/10/19 01:56:41;;;;;;;3.05;0.40;;;;;;;;;;6282650;22;20061;-43
2022/10/19 01:59:08;;;;;;;1.70;0.47;;;;;;;;;;6283971;22;20030;-42
2022/10/19 02:01:36;;;;;;;2.75;0.70;;;;;;;;;;6282383;22;20068;-42
2022/10/19 02:04:05;;;;;;;4.07;0.50;;;;;;;;;;6287254;22;20019;-42
2022/10/19 02:06:31;;;;;;;2.03;0.37;;;;;;;;;;6282500;22;20124;-44
2022/10/19 02:08:58;;;;;;;2.55;0.22;;;;;;;;;;6285178;22;20019;-42
2022/10/19 02:11:24;;;;;;;2.42;0.30;;;;;;;;;;6278778;22;20197;-43
2022/10/19 02:13:53;;;;;;;1.70;0.50;;;;;;;;;;6285367;22;20012;-42
2022/10/19 02:16:23;;;;;;;3.72;0.88;;;;;;;;;;6281286;22;20038;-43
2022/10/19 02:18:51;;;;;;;2.30;0.60;;;;;;;;;;6288299;22;20057;-42
2022/10/19 02:21:19;;;;;;;1.85;0.40;;;;;;;;;;6280773;22;20015;-43
2022/10/19 02:23:45;;;;;;;1.75;0.40;;;;;;;;;;6280419;22;20445;-44
2022/10/19 02:26:12;;;;;;;4.80;0.95;;;;;;;;;;6286571;22;20515;-43
2022/10/19 02:28:38;;;;;;;1.73;0.60;;;;;;;;;;6283673;22;20011;-42
2022/10/19 02:31:05;;;;;;;2.23;0.40;;;;;;;;;;6286586;22;20416;-42
2022/10/19 02:33:32;;;;;;;1.55;0.30;;;;;;;;;;6284187;22;20018;-43
2022/10/19 02:35:59;;;;;;;1.50;0.40;;;;;;;;;;6288064;22;20018;-43
2022/10/19 02:38:27;;;;;;;2.00;0.30;;;;;;;;;;6250752;22;20019;-42
2022/10/19 02:40:58;;;;;;;1.90;0.60;;;;;;;;;;6286659;22;20026;-43
2022/10/19 02:43:25;;;;;;;1.80;0.57;;;;;;;;;;6279267;22;20289;-42
2022/10/19 02:45:54;;;;;;;1.35;0.30;;;;;;;;;;6284760;22;20155;-44
2022/10/19 02:48:23;;;;;;;2.55;0.50;;;;;;;;;;6281045;22;20015;-46
2022/10/19 02:50:50;;;;;;;1.52;0.35;;;;;;;;;;6287124;22;20019;-42
2022/10/19 02:53:17;;;;;;;1.25;0.20;;;;;;;;;;6282966;22;20068;-41
2022/10/19 02:55:46;;;;;;;6.63;1.13;;;;;;;;;;6280665;22;20019;-42
2022/10/19 02:58:13;;;;;;;4.47;0.63;;;;;;;;;;6257655;22;20019;-44
2022/10/19 03:00:39;;;;;;;1.70;0.47;;;;;;;;;;6256057;22;20117;-44
2022/10/19 03:03:06;;;;;;;1.55;0.38;;;;;;;;;;6250554;22;20053;-42
2022/10/19 03:05:32;;;;;;;1.92;0.47;;;;;;;;;;6288794;22;20038;-42
2022/10/19 03:07:59;;;;;;;1.50;0.30;;;;;;;;;;6278103;22;20021;-42
2022/10/19 03:10:25;;;;;;;2.60;0.80;;;;;;;;;;6285935;22;20012;-42
2022/10/19 03:12:54;;;;;;;1.35;0.30;;;;;;;;;;6282109;22;20219;-42
2022/10/19 03:15:23;;;;;;;1.60;0.55;;;;;;;;;;6256491;22;20012;-46
2022/10/19 03:17:52;;;;;;;2.53;0.60;;;;;;;;;;6277051;22;20353;-43
2022/10/19 03:20:20;;;;;;;2.00;0.40;;;;;;;;;;6286507;22;20092;-44
2022/10/19 03:22:46;;;;;;;2.13;0.40;;;;;;;;;;6257374;22;20419;-43
2022/10/19 03:25:13;;;;;;;1.52;0.30;;;;;;;;;;6280370;22;20514;-44
2022/10/19 03:27:39;;;;;;;2.15;0.50;;;;;;;;;;6284480;22;20446;-43
2022/10/19 03:30:08;;;;;;;1.60;0.35;;;;;;;;;;6273479;22;20019;-42
2022/10/19 03:32:34;;;;;;;5.20;0.50;;;;;;;;;;6271360;22;20019;-43
2022/10/19 03:35:00;;;;;;;1.95;0.65;;;;;;;;;;6284261;22;20011;-43
2022/10/19 03:37:27;;;;;;;2.45;0.70;;;;;;;;;;6284918;22;20015;-42
2022/10/19 03:39:54;;;;;;;2.42;0.40;;;;;;;;;;6277794;22;20376;-42
2022/10/19 03:42:21;;;;;;;1.40;0.30;;;;;;;;;;6283228;22;20015;-42
2022/10/19 03:44:47;;;;;;;2.97;0.67;;;;;;;;;;6256930;22;20011;-44
2022/10/19 03:47:15;;;;;;;3.17;0.70;;;;;;;;;;6285039;22;20453;-43
2022/10/19 03:49:42;;;;;;;7.53;0.63;;;;;;;;;;6283033;22;20015;-45
2022/10/19 03:52:09;;;;;;;1.27;0.28;;;;;;;;;;6285423;22;20021;-42
2022/10/19 03:54:35;;;;;;;2.28;0.68;;;;;;;;;;6284952;22;20022;-44
2022/10/19 03:57:02;;;;;;;1.60;0.50;;;;;;;;;;6279108;22;20064;-43
2022/10/19 03:59:28;;;;;;;2.50;0.80;;;;;;;;;;6282677;22;20482;-42
2022/10/19 04:01:55;;;;;;;1.38;0.25;;;;;;;;;;6278279;22;20015;-41
2022/10/19 04:04:23;;;;;;;1.92;0.30;;;;;;;;;;6284821;22;20365;-42
2022/10/19 04:06:50;;;;;;;1.77;0.40;;;;;;;;;;6255770;22;20590;-43
2022/10/19 04:09:17;;;;;;;2.87;0.90;;;;;;;;;;6282576;22;20022;-42
2022/10/19 04:11:44;;;;;;;1.20;0.20;;;;;;;;;;6284343;22;20019;-43
2022/10/19 04:14:12;;;;;;;3.05;0.30;;;;;;;;;;6281991;22;20015;-42
2022/10/19 04:16:38;;;;;;;2.35;0.60;;;;;;;;;;6286916;22;20404;-43
2022/10/19 04:19:05;;;;;;;1.95;0.65;;;;;;;;;;6252369;22;20575;-42
2022/10/19 04:21:34;;;;;;;1.63;0.37;;;;;;;;;;6285910;22;20097;-42
2022/10/19 04:24:01;;;;;;;4.00;0.80;;;;;;;;;;6273870;22;20011;-42
2022/10/19 04:26:28;;;;;;;7.30;0.77;;;;;;;;;;6287131;22;20077;-43
2022/10/19 04:28:56;;;;;;;4.97;0.50;;;;;;;;;;6279739;22;20625;-42
2022/10/19 04:31:23;;;;;;;1.63;0.38;;;;;;;;;;6285624;22;20011;-43
2022/10/19 04:33:49;;;;;;;1.63;0.30;;;;;;;;;;6283278;22;20022;-42
2022/10/19 04:36:16;;;;;;;1.63;0.47;;;;;;;;;;6285049;22;20015;-42
2022/10/19 04:38:44;;;;;;;1.52;0.30;;;;;;;;;;6283382;22;20019;-42
2022/10/19 04:41:11;;;;;;;1.65;0.35;;;;;;;;;;6285876;22;20510;-42
2022/10/19 04:43:39;;;;;;;1.73;0.30;;;;;;;;;;6284191;22;20026;-43
2022/10/19 04:46:06;;;;;;;3.83;0.87;;;;;;;;;;6282584;22;20019;-43
2022/10/19 04:48:34;;;;;;;1.33;0.30;;;;;;;;;;6284024;22;20011;-42
2022/10/19 04:51:00;;;;;;;2.20;0.68;;;;;;;;;;6283173;22;20015;-42
2022/10/19 04:53:27;;;;;;;1.52;0.30;;;;;;;;;;6282900;22;20061;-42
2022/10/19 04:55:55;;;;;;;1.70;0.43;;;;;;;;;;6286342;22;20457;-43
2022/10/19 04:58:21;;;;;;;1.57;0.40;;;;;;;;;;6276068;22;20011;-45
2022/10/19 05:00:48;;;;;;;2.33;0.40;;;;;;;;;;6286319;22;20016;-43
2022/10/19 05:03:14;;;;;;;1.52;0.30;;;;;;;;;;6279135;22;20073;-42
2022/10/19 05:05:41;;;;;;;1.92;0.30;;;;;;;;;;6287261;22;20027;-42
2022/10/19 05:08:08;;;;;;;1.95;0.30;;;;;;;;;;6282158;22;20023;-42
2022/10/19 05:10:35;;;;;;;1.77;0.47;;;;;;;;;;6289175;22;20011;-44
2022/10/19 05:13:03;;;;;;;5.22;0.90;;;;;;;;;;6283150;22;20429;-47
2022/10/19 05:15:30;;;;;;;1.92;0.25;;;;;;;;;;6285126;22;20069;-45
2022/10/19 05:17:57;;;;;;;2.13;0.55;;;;;;;;;;6282241;22;20027;-45
2022/10/19 05:20:24;;;;;;;2.30;0.38;;;;;;;;;;6286004;22;20015;-44
2022/10/19 05:22:51;;;;;;;2.73;1.13;;;;;;;;;;6257575;22;20543;-43
2022/10/19 05:25:18;;;;;;;1.48;0.40;;;;;;;;;;6283713;22;20061;-44
2022/10/19 05:27:44;;;;;;;2.10;0.70;;;;;;;;;;6286705;22;20022;-42
2022/10/19 05:30:13;;;;;;;2.75;0.70;;;;;;;;;;6283663;22;20045;-41
2022/10/19 05:32:39;;;;;;;2.15;0.75;;;;;;;;;;6284284;22;20515;-43
2022/10/19 05:35:06;;;;;;;1.53;0.33;;;;;;;;;;6284719;22;20450;-42
2022/10/19 05:37:33;;;;;;;3.20;1.20;;;;;;;;;;6287515;22;20012;-44
2022/10/19 05:39:59;;;;;;;1.73;0.60;;;;;;;;;;6283529;22;20022;-42
2022/10/19 05:42:26;;;;;;;2.17;0.52;;;;;;;;;;6285773;22;20023;-42
2022/10/19 05:44:52;;;;;;;1.60;0.40;;;;;;;;;;6286022;22;20016;-42
2022/10/19 05:47:21;;;;;;;1.70;0.33;;;;;;;;;;6286080;22;20030;-44
2022/10/19 05:49:47;;;;;;;3.10;0.70;;;;;;;;;;6276191;22;20026;-41
2022/10/19 05:52:16;;;;;;;3.45;1.00;;;;;;;;;;6288070;22;20582;-43
2022/10/19 05:54:42;;;;;;;1.42;0.25;;;;;;;;;;6280397;22;20019;-43
2022/10/19 05:57:09;;;;;;;1.70;0.30;;;;;;;;;;6285860;22;20061;-44
2022/10/19 05:59:36;;;;;;;1.30;0.33;;;;;;;;;;6283538;22;20068;-42
2022/10/19 06:02:03;;;;;;;1.98;0.57;;;;;;;;;;6283818;22;20019;-42
2022/10/19 06:04:32;;;;;;;1.38;0.28;;;;;;;;;;6282671;22;20019;-43
2022/10/19 06:06:58;;;;;;;1.73;0.30;;;;;;;;;;6283790;22;20011;-43
2022/10/19 06:09:25;;;;;;;1.90;0.40;;;;;;;;;;6283706;22;20108;-43
2022/10/19 06:11:51;;;;;;;2.00;0.70;;;;;;;;;;6282575;22;20018;-43
2022/10/19 06:14:18;;;;;;;4.88;1.15;;;;;;;;;;6282835;22;20019;-42
2022/10/19 06:16:45;;;;;;;2.15;0.50;;;;;;;;;;6262888;22;20077;-43
2022/10/19 06:19:12;;;;;;;2.00;0.50;;;;;;;;;;6284867;22;20019;-42
2022/10/19 06:21:40;;;;;;;1.80;0.50;;;;;;;;;;6285766;22;20031;-41
2022/10/19 06:24:07;;;;;;;3.33;0.93;;;;;;;;;;6253009;22;20023;-42
2022/10/19 06:26:34;;;;;;;2.40;0.90;;;;;;;;;;6283927;22;20011;-44
2022/10/19 06:29:01;;;;;;;1.70;0.60;;;;;;;;;;6285731;22;20023;-44
2022/10/19 06:31:28;;;;;;;2.40;0.80;;;;;;;;;;6279171;22;20177;-42
2022/10/19 06:33:56;;;;;;;1.90;0.60;;;;;;;;;;6255916;22;20517;-44
2022/10/19 06:36:23;;;;;;;2.90;0.60;;;;;;;;;;6286705;22;20011;-42
2022/10/19 06:38:52;;;;;;;3.05;1.05;;;;;;;;;;6277498;22;20344;-43
2022/10/19 06:41:18;;;;;;;8.15;1.33;;;;;;;;;;6282453;22;20015;-43
2022/10/19 06:43:48;;;;;;;3.28;1.05;;;;;;;;;;6277412;22;20517;-42
2022/10/19 06:46:19;;;;;;;1.90;0.50;;;;;;;;;;6282803;22;20064;-42
2022/10/19 06:48:49;;;;;;;2.17;0.60;;;;;;;;;;6282232;22;20069;-45
2022/10/19 06:51:16;;;;;;;1.92;0.40;;;;;;;;;;6279007;22;20069;-44
2022/10/19 06:53:42;;;;;;;4.90;1.13;;;;;;;;;;6281450;22;20016;-42
2022/10/19 06:56:10;;;;;;;2.65;0.85;;;;;;;;;;6278905;22;20360;-43
2022/10/19 06:58:37;;;;;;;1.70;0.40;;;;;;;;;;6280895;22;20015;-43
2022/10/19 07:01:06;;;;;;;2.27;0.90;;;;;;;;;;6279633;22;20151;-44
2022/10/19 07:03:32;;;;;;;2.22;0.60;;;;;;;;;;6277949;22;20086;-44
2022/10/19 07:05:59;;;;;;;6.70;0.95;;;;;;;;;;6253860;22;20015;-42
2022/10/19 07:08:27;;;;;;;1.98;0.45;;;;;;;;;;6251832;22;20012;-43
2022/10/19 07:10:55;;;;;;;3.10;0.88;;;;;;;;;;6282368;22;20358;-42
2022/10/19 07:13:23;;;;;;;3.83;1.27;;;;;;;;;;6278512;22;20011;-43
2022/10/19 07:15:56;;;;;;;2.40;0.73;;;;;;;;;;6286917;22;20492;-43
2022/10/19 07:18:22;;;;;;;2.47;0.80;;;;;;;;;;6275818;22;20137;-42
2022/10/19 07:20:53;;;;;;;2.55;0.68;;;;;;;;;;6285646;22;20034;-43
2022/10/19 07:23:20;;;;;;;1.98;0.50;;;;;;;;;;6275943;22;20176;-42
2022/10/19 07:25:46;;;;;;;3.37;1.10;;;;;;;;;;6282008;22;20376;-42
2022/10/19 07:28:13;;;;;;;2.20;0.50;;;;;;;;;;6277029;22;20414;-44
2022/10/19 07:30:40;;;;;;;2.25;0.68;;;;;;;;;;6256160;22;20011;-42
2022/10/19 07:33:07;;;;;;;2.10;0.52;;;;;;;;;;6276252;22;20015;-45
2022/10/19 07:35:33;;;;;;;1.80;0.50;;;;;;;;;;6284699;22;20080;-43
2022/10/19 07:38:00;;;;;;;4.40;1.40;;;;;;;;;;6276081;22;20012;-43
2022/10/19 07:40:27;;;;;;;2.63;0.65;;;;;;;;;;6281754;22;20081;-42
2022/10/19 07:42:54;;;;;;;3.33;1.15;;;;;;;;;;6283123;22;20500;-44
2022/10/19 07:45:21;;;;;;;3.08;1.00;;;;;;;;;;6280724;22;20229;-42
2022/10/19 07:47:48;;;;;;;2.42;0.70;;;;;;;;;;6282283;22;20050;-43
2022/10/19 07:50:15;;;;;;;2.93;1.07;;;;;;;;;;6251119;22;20602;-43
2022/10/19 07:52:41;;;;;;;2.58;0.88;;;;;;;;;;6282882;22;20015;-44
2022/10/19 07:55:08;;;;;;;2.17;0.70;;;;;;;;;;6279730;22;20011;-42
2022/10/19 07:57:35;;;;;;;3.03;1.33;;;;;;;;;;6283440;22;20489;-42
2022/10/19 08:00:02;;;;;;;2.65;0.90;;;;;;;;;;6278455;22;20472;-43
2022/10/19 08:02:28;;;;;;;2.93;1.03;;;;;;;;;;6280479;22;20023;-44
2022/10/19 08:04:56;;;;;;;3.92;1.10;;;;;;;;;;6280878;22;20578;-42
2022/10/19 08:07:23;;;;;;;5.10;1.20;;;;;;;;;;6283180;22;20012;-42
2022/10/19 08:09:49;;;;;;;4.53;1.48;;;;;;;;;;6282163;22;20015;-43
2022/10/19 08:12:16;;;;;;;2.38;0.70;;;;;;;;;;6277638;22;20061;-43
2022/10/19 08:14:43;;;;;;;5.90;1.30;;;;;;;;;;6267893;22;20043;-43
2022/10/19 08:17:10;;;;;;;2.97;1.02;;;;;;;;;;6240195;22;20019;-45
2022/10/19 08:19:40;;;;;;;2.97;0.77;;;;;;;;;;6265333;22;20026;-43
2022/10/19 08:22:09;;;;;;;4.22;1.35;;;;;;;;;;6267630;22;20319;-44
2022/10/19 08:24:35;;;;;;;3.22;0.90;;;;;;;;;;6260002;22;20957;-45
2022/10/19 08:27:02;;;;;;;5.23;0.70;;;;;;;;;;6243174;22;20015;-42
2022/10/19 08:29:28;;;;;;;5.53;1.27;;;;;;;;;;6266190;22;20011;-43
2022/10/19 08:31:55;;;;;;;2.45;0.57;;;;;;;;;;6262989;22;20011;-43
2022/10/19 08:34:21;;;;;;;3.78;1.52;;;;;;;;;;6262318;22;20293;-45
2022/10/19 08:36:48;;;;;;;7.18;1.17;;;;;;;;;;6267532;22;20019;-44
2022/10/19 08:39:17;;;;;;;7.73;1.27;;;;;;;;;;6266362;22;20747;-45
2022/10/19 08:41:51;;;;;;;5.72;1.20;;;;;;;;;;6261688;22;20439;-44
2022/10/19 08:44:28;;;;;;;4.00;1.60;;;;;;;;;;6264755;22;20016;-44
2022/10/19 08:46:59;;;;;;;3.95;1.58;;;;;;;;;;6264232;22;20381;-43
2022/10/19 08:49:28;;;;;;;2.28;0.80;;;;;;;;;;6275951;22;20024;-45
2022/10/19 08:51:57;;;;;;;3.20;1.23;;;;;;;;;;6238640;22;20041;-43
2022/10/19 08:54:31;;;;;;;4.78;0.70;;;;;;;;;;6265846;22;20015;-42
2022/10/19 08:57:04;;;;;;;5.22;1.30;;;;;;;;;;6272716;22;20090;-42
2022/10/19 08:59:36;;;;;;;2.80;0.80;;;;;;;;;;6254442;22;20023;-43
2022/10/19 09:02:09;;;;;;;3.63;1.45;;;;;;;;;;6281575;22;20117;-43
2022/10/19 09:04:37;;;;;;;5.60;0.73;;;;;;;;;;6256997;22;20392;-44
2022/10/19 09:07:12;;;;;;;2.25;0.60;;;;;;;;;;6279591;22;20072;-43
2022/10/19 09:09:42;;;;;;;3.80;1.02;;;;;;;;;;6255202;22;20046;-44
2022/10/19 09:12:11;;;;;;;3.15;0.82;;;;;;;;;;6251743;22;20015;-42
2022/10/19 09:14:40;;;;;;;3.92;0.90;;;;;;;;;;6285570;22;20484;-43
2022/10/19 09:17:10;;;;;;;3.13;1.00;;;;;;;;;;6284658;22;20027;-42
2022/10/19 09:19:37;;;;;;;5.07;1.42;;;;;;;;;;6285079;22;20031;-42
2022/10/19 09:22:05;;;;;;;2.58;0.98;;;;;;;;;;6288910;22;20038;-42
2022/10/19 09:24:38;;;;;;;3.83;1.67;;;;;;;;;;6283319;22;20020;-46
2022/10/19 09:27:10;;;;;;;3.22;0.93;;;;;;;;;;6290322;22;20018;-42
2022/10/19 09:29:38;;;;;;;2.33;0.80;;;;;;;;;;6283736;22;20011;-44
2022/10/19 09:32:05;;;;;;;2.75;0.90;;;;;;;;;;6277938;22;20011;-44
2022/10/19 09:34:34;;;;;;;6.53;1.88;;;;;;;;;;6283089;22;20092;-42
2022/10/19 09:37:00;;;;;;;3.65;0.90;;;;;;;;;;6278423;22;20011;-42
2022/10/19 09:39:28;;;;;;;4.38;1.67;;;;;;;;;;6261098;22;20015;-43
2022/10/19 09:41:56;;;;;;;2.90;0.83;;;;;;;;;;6283413;22;20014;-44
2022/10/19 09:44:25;;;;;;;3.45;1.90;;;;;;;;;;6284849;22;20233;-43
2022/10/19 09:46:54;;;;;;;2.63;1.02;;;;;;;;;;6283913;22;20026;-43
2022/10/19 09:49:40;;;;;;;2.10;0.50;;;;;;;;;;6291147;22;20503;-42
2022/10/19 09:52:20;;;;;;;3.67;1.02;;;;;;;;;;6288796;22;20077;-45
2022/10/19 09:54:50;;;;;;;2.87;1.27;;;;;;;;;;6255849;22;20656;-43
2022/10/19 09:57:19;;;;;;;4.85;1.90;;;;;;;;;;6285961;22;20011;-42
2022/10/19 09:59:51;;;;;;;5.60;1.85;;;;;;;;;;6283521;22;20019;-43
2022/10/19 10:02:18;;;;;;;2.40;0.60;;;;;;;;;;6251579;22;20716;-43
2022/10/19 10:04:54;;;;;;;8.60;1.52;;;;;;;;;;6259281;22;20420;-43
2022/10/19 10:07:21;;;;;;;2.17;0.77;;;;;;;;;;6280175;22;20015;-42
2022/10/19 10:09:47;;;;;;;6.75;1.25;;;;;;;;;;6258917;22;20019;-44
2022/10/19 10:12:15;;;;;;;2.72;0.70;;;;;;;;;;6282466;22;20015;-48
2022/10/19 10:14:43;;;;;;;2.20;0.80;;;;;;;;;;6283707;22;20027;-44
2022/10/19 10:17:15;;;;;;;3.95;1.17;;;;;;;;;;6285931;22;20015;-43
2022/10/19 10:19:49;;;;;;;3.47;1.37;;;;;;;;;;6283799;22;20041;-46
2022/10/19 10:22:24;;;;;;;3.20;1.02;;;;;;;;;;6261045;22;20445;-42
2022/10/19 10:24:51;;;;;;;4.60;1.95;;;;;;;;;;6278141;22;20034;-45
2022/10/19 10:27:25;;;;;;;2.85;1.10;;;;;;;;;;6282954;22;20022;-43
2022/10/19 10:29:55;;;;;;;6.82;1.10;;;;;;;;;;6258627;22;20073;-45
2022/10/19 10:32:23;;;;;;;4.00;2.10;;;;;;;;;;6279300;22;20026;-44
2022/10/19 10:34:56;;;;;;;2.80;0.88;;;;;;;;;;6287412;22;20015;-42
2022/10/19 10:37:24;;;;;;;2.65;0.70;;;;;;;;;;6253012;22;20372;-44
2022/10/19 10:39:51;;;;;;;3.17;1.17;;;;;;;;;;6274034;22;20026;-44
2022/10/19 10:42:22;;;;;;;4.82;1.17;;;;;;;;;;6283779;22;20025;-42
2022/10/19 10:44:51;;;;;;;3.63;0.80;;;;;;;;;;6284176;22;20019;-43
2022/10/19 10:47:19;;;;;;;4.78;1.90;;;;;;;;;;6283400;22;20590;-42
2022/10/19 10:49:53;;;;;;;3.25;1.02;;;;;;;;;;6284684;22;20467;-44
2022/10/19 10:52:20;;;;;;;4.35;1.88;;;;;;;;;;6289205;22;20102;-44
2022/10/19 10:54:57;;;;;;;7.70;1.42;;;;;;;;;;6284204;22;20367;-42
2022/10/19 10:57:25;;;;;;;5.03;1.40;;;;;;;;;;6285831;22;20015;-42
2022/10/19 10:59:55;;;;;;;2.75;0.95;;;;;;;;;;6280430;22;20027;-44
2022/10/19 11:02:34;;;;;;;2.58;0.80;;;;;;;;;;6277808;22;20023;-47
2022/10/19 11:05:05;;;;;;;3.05;0.88;;;;;;;;;;6287228;22;20019;-44
2022/10/19 11:07:34;;;;;;;5.20;1.52;;;;;;;;;;6243951;22;20015;-46
2022/10/19 11:10:05;;;;;;;4.03;1.10;;;;;;;;;;6283753;22;20674;-44
2022/10/19 11:12:34;;;;;;;2.67;0.98;;;;;;;;;;6278538;22;20019;-44
2022/10/19 11:15:05;;;;;;;3.35;0.93;;;;;;;;;;6282227;22;20054;-44
2022/10/19 11:17:34;;;;;;;3.50;1.35;;;;;;;;;;6255707;22;20038;-42
2022/10/19 11:20:00;;;;;;;3.83;1.42;;;;;;;;;;6278563;22;20019;-43
2022/10/19 11:22:32;;;;;;;3.00;1.30;;;;;;;;;;6283037;22;20125;-43
2022/10/19 11:25:04;;;;;;;2.80;1.15;;;;;;;;;;6281298;22;20015;-45
2022/10/19 11:27:37;;;;;;;3.58;0.93;;;;;;;;;;6283090;22;20015;-44
2022/10/19 11:30:09;;;;;;;3.20;1.20;;;;;;;;;;6276590;22;20015;-43
2022/10/19 11:32:41;;;;;;;5.72;1.00;;;;;;;;;;6276987;22;20019;-44
2022/10/19 11:35:17;;;;;;;3.50;1.30;;;;;;;;;;6278875;22;20022;-42
2022/10/19 11:37:48;;;;;;;3.10;1.00;;;;;;;;;;6282144;22;20094;-44
2022/10/19 11:40:19;;;;;;;3.22;0.90;;;;;;;;;;6250661;22;20396;-43
2022/10/19 11:42:53;;;;;;;3.60;0.57;;;;;;;;;;6283718;22;20023;-42
2022/10/19 11:45:24;;;;;;;2.90;1.10;;;;;;;;;;6279430;22;20057;-44
2022/10/19 11:48:00;;;;;;;3.40;1.37;;;;;;;;;;6278703;22;20069;-43
2022/10/19 11:50:30;;;;;;;2.72;1.10;;;;;;;;;;6253907;22;20342;-43
2022/10/19 11:53:02;;;;;;;7.05;2.67;;;;;;;;;;6279867;22;20445;-42
2022/10/19 11:55:35;;;;;;;3.63;1.13;;;;;;;;;;6275964;22;20513;-42
2022/10/19 11:58:07;;;;;;;2.92;1.15;;;;;;;;;;6282283;22;20019;-44
2022/10/19 12:00:38;;;;;;;5.80;1.37;;;;;;;;;;6270964;22;20434;-43
2022/10/19 12:03:13;;;;;;;3.30;0.80;;;;;;;;;;6260196;22;20019;-45
2022/10/19 12:05:44;;;;;;;2.38;0.68;;;;;;;;;;6279403;22;20196;-43
2022/10/19 12:08:20;;;;;;;8.55;0.88;;;;;;;;;;6285272;22;20023;-42
2022/10/19 12:10:49;;;;;;;2.58;0.77;;;;;;;;;;6284173;22;20019;-44
2022/10/19 12:13:18;;;;;;;4.17;0.90;;;;;;;;;;6283169;22;20073;-42
2022/10/19 12:15:47;;;;;;;5.20;1.75;;;;;;;;;;6287744;22;20019;-45
2022/10/19 12:18:16;;;;;;;3.88;1.50;;;;;;;;;;6283912;22;20011;-42
2022/10/19 12:20:43;;;;;;;3.00;0.80;;;;;;;;;;6289398;22;20023;-45
2022/10/19 12:23:20;;;;;;;3.90;1.40;;;;;;;;;;6283791;22;20446;-42
2022/10/19 12:25:48;;;;;;;5.20;1.07;;;;;;;;;;6261818;22;20027;-43
2022/10/19 12:28:18;;;;;;;7.28;1.50;;;;;;;;;;6282900;22;20397;-42
2022/10/19 12:30:45;;;;;;;5.78;1.38;;;;;;;;;;6280332;22;20018;-43
2022/10/19 12:33:15;;;;;;;1.95;0.50;;;;;;;;;;6283829;22;20016;-43
2022/10/19 12:35:52;;;;;;;2.78;0.73;;;;;;;;;;6285386;22;20629;-42
2022/10/19 12:38:22;;;;;;;2.47;0.63;;;;;;;;;;6280107;22;20015;-43
2022/10/19 12:40:53;;;;;;;4.28;0.90;;;;;;;;;;6289191;22;20049;-42
2022/10/19 12:43:21;;;;;;;1.75;0.30;;;;;;;;;;6282742;22;20473;-43
2022/10/19 12:45:49;;;;;;;4.70;1.05;;;;;;;;;;6285597;22;20379;-42
2022/10/19 12:48:17;;;;;;;4.43;1.35;;;;;;;;;;6284355;22;20012;-42
2022/10/19 12:51:01;;;;;;;2.70;0.80;;;;;;;;;;6287699;22;20011;-43
2022/10/19 12:53:30;;;;;;;5.00;0.95;;;;;;;;;;6287598;22;20012;-43
2022/10/19 12:56:01;;;;;;;2.40;0.60;;;;;;;;;;6282663;22;20011;-42
2022/10/19 12:58:29;;;;;;;5.80;1.45;;;;;;;;;;6285324;22;20019;-45
2022/10/19 13:00:59;;;;;;;2.63;0.80;;;;;;;;;;6284601;22;20019;-44
2022/10/19 13:03:29;;;;;;;3.47;0.90;;;;;;;;;;6282691;22;20430;-42
2022/10/19 13:05:56;;;;;;;2.80;1.13;;;;;;;;;;6283780;22;20022;-43
2022/10/19 13:08:26;;;;;;;3.35;1.05;;;;;;;;;;6287398;22;20562;-42
2022/10/19 13:11:05;;;;;;;4.22;1.05;;;;;;;;;;6255744;22;20392;-42
2022/10/19 13:13:50;;;;;;;2.13;0.70;;;;;;;;;;6258118;22;20058;-43
2022/10/19 13:16:35;;;;;;;2.80;0.83;;;;;;;;;;6284663;22;20726;-42
2022/10/19 13:19:03;;;;;;;4.70;1.50;;;;;;;;;;6288901;22;20023;-42
2022/10/19 13:21:49;;;;;;;7.68;2.40;;;;;;;;;;6283592;22;20064;-43
2022/10/19 13:24:26;;;;;;;2.72;0.98;;;;;;;;;;6276507;22;20373;-43
2022/10/19 13:27:07;;;;;;;3.35;1.08;;;;;;;;;;6287015;22;20019;-43
2022/10/19 13:29:43;;;;;;;4.70;1.13;;;;;;;;;;6280830;22;20027;-43
2022/10/19 13:32:28;;;;;;;4.13;1.58;;;;;;;;;;6277157;22;20046;-42
2022/10/19 13:34:54;;;;;;;4.78;1.35;;;;;;;;;;6284207;22;20015;-43
2022/10/19 13:37:21;;;;;;;2.13;0.60;;;;;;;;;;6278576;22;20077;-46
2022/10/19 13:39:49;;;;;;;6.00;0.65;;;;;;;;;;6277178;22;20011;-42
2022/10/19 13:42:23;;;;;;;2.70;0.90;;;;;;;;;;6276378;22;20019;-44
2022/10/19 13:44:52;;;;;;;5.18;1.77;;;;;;;;;;6278503;22;20073;-43
2022/10/19 13:47:39;;;;;;;5.13;1.13;;;;;;;;;;6221040;22;20111;-43
2022/10/19 13:50:25;;;;;;;5.28;1.10;;;;;;;;;;6202179;23;20013;-43
2022/10/19 13:53:15;;;;;;;4.22;1.55;;;;;;;;;;6195880;23;20020;-46
2022/10/19 13:56:00;;;;;;;6.50;1.10;;;;;;;;;;6195610;22;20427;-42
2022/10/19 13:58:56;;;;;;;2.55;0.80;;;;;;;;;;6202574;23;20566;-43
2022/10/19 14:01:31;;;;;;;5.38;1.30;;;;;;;;;;6184059;22;20024;-43
2022/10/19 14:04:03;;;;;;;6.53;1.40;;;;;;;;;;6217535;23;20016;-43
2022/10/19 14:06:33;;;;;;;2.97;0.80;;;;;;;;;;6222728;23;20024;-42
2022/10/19 14:09:19;;;;;;;11.40;1.53;;;;;;;;;;6212828;23;20074;-43
2022/10/19 14:11:47;;;;;;;3.83;1.15;;;;;;;;;;6208389;23;20441;-43
2022/10/19 14:14:14;;;;;;;2.55;0.90;;;;;;;;;;6199740;23;20395;-43
2022/10/19 14:16:59;;;;;;;2.33;0.70;;;;;;;;;;6203525;23;20382;-42
2022/10/19 14:19:28;;;;;;;3.55;1.15;;;;;;;;;;6207830;23;20020;-44
2022/10/19 14:21:57;;;;;;;3.80;1.03;;;;;;;;;;6202524;23;20824;-44
2022/10/19 14:24:29;;;;;;;2.90;1.13;;;;;;;;;;6192734;23;20016;-44
2022/10/19 14:26:55;;;;;;;3.28;1.05;;;;;;;;;;6199875;23;20390;-43
2022/10/19 14:29:22;;;;;;;2.33;0.70;;;;;;;;;;6200423;23;20070;-42
2022/10/19 14:31:49;;;;;;;2.55;0.88;;;;;;;;;;6193448;23;20048;-43
2022/10/19 14:34:16;;;;;;;2.70;0.93;;;;;;;;;;6187015;23;20087;-44
2022/10/19 14:36:46;;;;;;;3.65;1.17;;;;;;;;;;6196074;23;20095;-43
2022/10/19 14:39:22;;;;;;;2.65;0.90;;;;;;;;;;6205385;23;20211;-43
2022/10/19 14:41:52;;;;;;;3.25;1.00;;;;;;;;;;6208656;23;20077;-42
2022/10/19 14:44:24;;;;;;;3.15;0.93;;;;;;;;;;6195506;22;20328;-44
2022/10/19 14:46:50;;;;;;;3.30;1.07;;;;;;;;;;6240426;22;20076;-43
2022/10/19 14:49:17;;;;;;;3.33;0.70;;;;;;;;;;6272301;22;20329;-43
2022/10/19 14:51:46;;;;;;;3.50;1.52;;;;;;;;;;6267450;22;20015;-44
2022/10/19 14:54:17;;;;;;;3.22;0.75;;;;;;;;;;6261083;22;20513;-43
2022/10/19 14:56:48;;;;;;;2.83;0.77;;;;;;;;;;6266640;22;20035;-43